Time;durP1;ratioP1;P1;durP2;ratioP2;P2;SDS_P1;SDS_P2;PMS_P1;PMS_P2;Temp;Humidity;BMP_temperature;BMP_pressure;BME280_temperature;BME280_humidity;BME280_pressure;Samples;Min_cycle;Max_cycle;Signal;HPM_P1;HPM_P2
2023/01/23 00:00:34;;;;;;;2.60;2.03;;;;;;;;;;5055340;28;20033;-80
2023/01/23 00:02:59;;;;;;;3.10;2.25;;;;;;;;;;5037516;28;20025;-80
2023/01/23 00:05:25;;;;;;;3.83;2.35;;;;;;;;;;5037435;28;20369;-80
2023/01/23 00:07:50;;;;;;;2.70;2.10;;;;;;;;;;5037678;28;20468;-79
2023/01/23 00:10:16;;;;;;;3.38;2.15;;;;;;;;;;5037518;28;20074;-79
2023/01/23 00:12:42;;;;;;;2.35;1.80;;;;;;;;;;5055318;28;20053;-79
2023/01/23 00:15:09;;;;;;;2.80;1.90;;;;;;;;;;5037568;28;20108;-79
2023/01/23 00:17:35;;;;;;;3.92;1.98;;;;;;;;;;5037146;28;20059;-79
2023/01/23 00:20:00;;;;;;;2.50;2.00;;;;;;;;;;5037233;28;20033;-80
2023/01/23 00:22:25;;;;;;;2.83;2.05;;;;;;;;;;5037133;28;20028;-80
2023/01/23 00:24:51;;;;;;;3.72;2.50;;;;;;;;;;5054858;28;20032;-79
2023/01/23 00:27:17;;;;;;;2.97;2.10;;;;;;;;;;5053902;28;20029;-80
2023/01/23 00:29:44;;;;;;;3.85;2.00;;;;;;;;;;5037461;28;20430;-80
2023/01/23 00:32:09;;;;;;;2.30;1.85;;;;;;;;;;5054880;28;20025;-80
2023/01/23 00:34:35;;;;;;;4.00;1.95;;;;;;;;;;5037009;28;20044;-80
2023/01/23 00:37:00;;;;;;;3.47;2.22;;;;;;;;;;5055150;28;20028;-80
2023/01/23 00:39:25;;;;;;;5.00;2.17;;;;;;;;;;5054669;28;20440;-79
2023/01/23 00:41:51;;;;;;;7.38;2.08;;;;;;;;;;5053559;28;20464;-79
2023/01/23 00:44:16;;;;;;;3.28;1.80;;;;;;;;;;5036820;28;20114;-79
2023/01/23 00:46:42;;;;;;;2.25;1.85;;;;;;;;;;5053518;28;20025;-79
2023/01/23 00:49:07;;;;;;;4.00;2.08;;;;;;;;;;5053483;28;20490;-79
2023/01/23 00:51:33;;;;;;;2.78;2.10;;;;;;;;;;5037083;28;20082;-79
2023/01/23 00:53:59;;;;;;;2.65;2.10;;;;;;;;;;5054968;28;20033;-79
2023/01/23 00:56:25;;;;;;;3.15;1.92;;;;;;;;;;5036550;28;20025;-79
2023/01/23 00:58:50;;;;;;;2.78;2.05;;;;;;;;;;5036530;28;20031;-79
2023/01/23 01:01:16;;;;;;;2.70;1.85;;;;;;;;;;5054132;28;20104;-79
2023/01/23 01:03:42;;;;;;;2.95;2.13;;;;;;;;;;5036801;28;20033;-79
2023/01/23 01:06:08;;;;;;;3.17;1.88;;;;;;;;;;5036554;28;20028;-79
2023/01/23 01:08:34;;;;;;;3.13;2.10;;;;;;;;;;5036620;28;20032;-79
2023/01/23 01:11:00;;;;;;;3.08;1.95;;;;;;;;;;5053918;28;20025;-79
2023/01/23 01:13:26;;;;;;;2.25;1.85;;;;;;;;;;5023685;28;20366;-79
2023/01/23 01:15:52;;;;;;;3.50;1.90;;;;;;;;;;5016368;28;20076;-79
2023/01/23 01:18:18;;;;;;;3.53;1.85;;;;;;;;;;5016625;28;20029;-79
2023/01/23 01:20:44;;;;;;;2.92;1.95;;;;;;;;;;5016079;28;20108;-79
2023/01/23 01:23:10;;;;;;;2.20;1.90;;;;;;;;;;5016336;28;20391;-79
2023/01/23 01:25:36;;;;;;;2.22;1.75;;;;;;;;;;5033756;28;20033;-80
2023/01/23 01:28:01;;;;;;;2.95;2.10;;;;;;;;;;4999973;28;20120;-79
2023/01/23 01:30:28;;;;;;;3.42;1.73;;;;;;;;;;4999623;28;20388;-79
2023/01/23 01:32:53;;;;;;;2.88;2.15;;;;;;;;;;5034003;28;20194;-79
2023/01/23 01:35:19;;;;;;;3.03;1.88;;;;;;;;;;5015984;28;20056;-80
2023/01/23 01:37:45;;;;;;;2.40;1.80;;;;;;;;;;5016229;28;20026;-79
2023/01/23 01:40:14;;;;;;;2.58;1.80;;;;;;;;;;5033492;28;20032;-79
2023/01/23 01:42:42;;;;;;;2.45;1.83;;;;;;;;;;5015906;28;20037;-79
2023/01/23 01:45:45;;;;;;;3.13;1.77;;;;;;;;;;5015940;28;20072;-79
2023/01/23 01:48:11;;;;;;;2.65;1.90;;;;;;;;;;5033803;28;20018;-79
2023/01/23 01:50:36;;;;;;;2.65;1.90;;;;;;;;;;5015795;28;20029;-79
2023/01/23 01:53:02;;;;;;;2.47;1.70;;;;;;;;;;5033403;28;20029;-79
2023/01/23 01:55:27;;;;;;;3.83;2.22;;;;;;;;;;5015687;28;20492;-79
2023/01/23 01:57:53;;;;;;;2.08;1.67;;;;;;;;;;5033294;28;20315;-78
2023/01/23 02:00:19;;;;;;;2.67;2.00;;;;;;;;;;5033751;28;20034;-79
2023/01/23 02:02:51;;;;;;;3.25;1.90;;;;;;;;;;5033235;28;20060;-78
2023/01/23 02:05:20;;;;;;;2.67;2.00;;;;;;;;;;5015846;28;20021;-78
2023/01/23 02:08:06;;;;;;;2.60;2.00;;;;;;;;;;5015570;28;20066;-79
2023/01/23 02:10:33;;;;;;;2.58;1.90;;;;;;;;;;4999097;28;20021;-79
2023/01/23 02:13:35;;;;;;;4.78;2.13;;;;;;;;;;5042031;28;20522;-78
2023/01/23 02:16:13;;;;;;;2.67;1.88;;;;;;;;;;5036209;28;20025;-79
2023/01/23 02:18:43;;;;;;;3.90;1.90;;;;;;;;;;5035722;28;20017;-79
2023/01/23 02:21:10;;;;;;;3.58;2.00;;;;;;;;;;5052910;28;20036;-78
2023/01/23 02:23:44;;;;;;;3.33;1.73;;;;;;;;;;5035404;28;20028;-78
2023/01/23 02:26:16;;;;;;;2.97;2.08;;;;;;;;;;5053102;28;20021;-78
2023/01/23 02:28:47;;;;;;;2.28;1.65;;;;;;;;;;5019217;28;20063;-78
2023/01/23 02:31:13;;;;;;;3.22;2.13;;;;;;;;;;5035124;28;20017;-78
2023/01/23 02:33:38;;;;;;;3.17;2.10;;;;;;;;;;5035085;28;20033;-78
2023/01/23 02:36:07;;;;;;;3.10;2.10;;;;;;;;;;5053277;28;20033;-79
2023/01/23 02:38:36;;;;;;;3.88;2.10;;;;;;;;;;5035307;28;20029;-78
2023/01/23 02:41:03;;;;;;;4.63;2.30;;;;;;;;;;5035053;28;20109;-79
2023/01/23 02:43:37;;;;;;;3.78;2.03;;;;;;;;;;5052753;28;20391;-79
2023/01/23 02:46:09;;;;;;;2.78;1.98;;;;;;;;;;5035787;28;20021;-80
2023/01/23 02:48:36;;;;;;;2.92;2.05;;;;;;;;;;5068453;28;20476;-79
2023/01/23 02:51:01;;;;;;;3.78;2.03;;;;;;;;;;5034807;28;20383;-79
2023/01/23 02:53:28;;;;;;;2.70;1.98;;;;;;;;;;5035369;28;20029;-78
2023/01/23 02:55:55;;;;;;;2.17;1.67;;;;;;;;;;5055774;28;20021;-78
2023/01/23 03:01:04;;;;;;;3.55;1.80;;;;;;;;;;5055716;28;20047;-81
2023/01/23 03:03:29;;;;;;;2.83;2.10;;;;;;;;;;5056502;28;20033;-78
2023/01/23 03:05:58;;;;;;;3.47;2.00;;;;;;;;;;5022017;28;20033;-78
2023/01/23 03:08:33;;;;;;;2.58;1.90;;;;;;;;;;5039862;28;20372;-78
2023/01/23 03:11:02;;;;;;;3.15;1.98;;;;;;;;;;5056238;28;20045;-78
2023/01/23 03:13:28;;;;;;;4.78;2.17;;;;;;;;;;5025481;28;20076;-78
2023/01/23 03:15:57;;;;;;;3.03;1.80;;;;;;;;;;5018528;28;20425;-80
2023/01/23 03:18:26;;;;;;;2.65;1.77;;;;;;;;;;5036581;28;20151;-79
2023/01/23 03:20:52;;;;;;;3.80;2.00;;;;;;;;;;5018829;28;20026;-81
2023/01/23 03:23:17;;;;;;;3.50;1.90;;;;;;;;;;5036394;28;20041;-81
2023/01/23 03:25:43;;;;;;;4.78;2.10;;;;;;;;;;5018441;28;20079;-80
2023/01/23 03:30:12;;;;;;;4.07;2.28;;;;;;;;;;5018766;28;20341;-80
2023/01/23 03:30:54;;;;;;;4.03;2.03;;;;;;;;;;5021187;28;20104;-80
2023/01/23 03:33:19;;;;;;;3.95;2.05;;;;;;;;;;5036063;28;20108;-80
2023/01/23 03:35:45;;;;;;;2.70;1.83;;;;;;;;;;5018283;28;20472;-80
2023/01/23 03:38:10;;;;;;;3.08;1.85;;;;;;;;;;5036474;28;20051;-80
2023/01/23 03:43:19;;;;;;;3.80;2.00;;;;;;;;;;5021562;28;20095;-80
2023/01/23 03:45:45;;;;;;;3.72;1.95;;;;;;;;;;5035989;28;20041;-80
2023/01/23 03:48:10;;;;;;;4.50;1.95;;;;;;;;;;4985708;28;20035;-80
2023/01/23 03:50:35;;;;;;;3.00;2.10;;;;;;;;;;5017900;28;20044;-79
2023/01/23 03:53:01;;;;;;;2.83;1.90;;;;;;;;;;5035643;28;20468;-79
2023/01/23 03:55:26;;;;;;;3.47;2.00;;;;;;;;;;5018163;28;20473;-79
2023/01/23 03:57:52;;;;;;;3.28;2.10;;;;;;;;;;5018269;28;20033;-79
2023/01/23 04:00:17;;;;;;;2.83;1.95;;;;;;;;;;5017783;28;20037;-80
2023/01/23 04:02:43;;;;;;;2.50;2.10;;;;;;;;;;5002822;28;20044;-80
2023/01/23 04:05:08;;;;;;;2.25;2.00;;;;;;;;;;5034928;28;20025;-80
2023/01/23 04:07:34;;;;;;;2.95;1.92;;;;;;;;;;5035681;28;20033;-79
2023/01/23 04:09:59;;;;;;;2.90;1.80;;;;;;;;;;5035591;28;20029;-79
2023/01/23 04:12:24;;;;;;;3.50;2.28;;;;;;;;;;5039129;28;20139;-79
2023/01/23 04:14:50;;;;;;;2.05;1.83;;;;;;;;;;5055451;28;20063;-79
2023/01/23 04:17:15;;;;;;;3.22;1.63;;;;;;;;;;5037629;28;20041;-79
2023/01/23 04:19:41;;;;;;;2.90;2.10;;;;;;;;;;5055166;28;20111;-79
2023/01/23 04:22:06;;;;;;;3.97;1.90;;;;;;;;;;5054039;28;20130;-79
2023/01/23 04:24:32;;;;;;;2.92;1.90;;;;;;;;;;5054964;28;20033;-79
2023/01/23 04:26:57;;;;;;;3.10;1.77;;;;;;;;;;5037119;28;20479;-79
2023/01/23 04:29:22;;;;;;;3.28;1.90;;;;;;;;;;5054811;28;20029;-79
2023/01/23 04:31:48;;;;;;;2.78;2.17;;;;;;;;;;5054979;28;20056;-79
2023/01/23 04:34:13;;;;;;;4.60;2.05;;;;;;;;;;5054863;28;20095;-79
2023/01/23 04:36:38;;;;;;;2.22;1.95;;;;;;;;;;5054997;28;20108;-78
2023/01/23 04:39:04;;;;;;;3.25;2.00;;;;;;;;;;5054972;28;20040;-79
2023/01/23 04:41:30;;;;;;;3.10;2.08;;;;;;;;;;5036921;28;20127;-78
2023/01/23 04:44:18;;;;;;;2.15;1.77;;;;;;;;;;5020183;28;20123;-79
2023/01/23 04:46:42;;;;;;;2.50;2.00;;;;;;;;;;5039467;28;20037;-79
2023/01/23 04:49:07;;;;;;;3.38;2.00;;;;;;;;;;5036948;28;20033;-79
2023/01/23 04:51:32;;;;;;;2.30;1.60;;;;;;;;;;5036682;28;20029;-79
2023/01/23 04:53:58;;;;;;;2.83;2.00;;;;;;;;;;5036914;28;20044;-79
2023/01/23 04:56:23;;;;;;;3.28;2.00;;;;;;;;;;5036550;28;20033;-79
2023/01/23 04:58:48;;;;;;;4.05;1.98;;;;;;;;;;5036538;28;20443;-79
2023/01/23 05:01:14;;;;;;;4.10;2.17;;;;;;;;;;5036454;28;20037;-78
2023/01/23 05:03:39;;;;;;;2.47;2.10;;;;;;;;;;5037098;28;20090;-78
2023/01/23 05:06:05;;;;;;;2.92;1.75;;;;;;;;;;5036823;28;20036;-78
2023/01/23 05:08:30;;;;;;;2.00;1.80;;;;;;;;;;5036625;28;20053;-78
2023/01/23 05:10:56;;;;;;;4.00;1.80;;;;;;;;;;5054445;28;20048;-78
2023/01/23 05:13:21;;;;;;;2.67;1.88;;;;;;;;;;5024860;28;20083;-78
2023/01/23 05:15:46;;;;;;;5.18;2.25;;;;;;;;;;5017063;28;20032;-79
2023/01/23 05:18:12;;;;;;;5.03;2.38;;;;;;;;;;5033568;28;20029;-78
2023/01/23 05:20:37;;;;;;;2.83;2.10;;;;;;;;;;5034773;28;20084;-78
2023/01/23 05:23:02;;;;;;;2.92;2.15;;;;;;;;;;5016560;28;20104;-77
2023/01/23 05:25:28;;;;;;;3.45;2.22;;;;;;;;;;5034560;28;20036;-78
2023/01/23 05:27:53;;;;;;;2.72;2.00;;;;;;;;;;5016695;28;20534;-77
2023/01/23 05:30:20;;;;;;;3.15;1.92;;;;;;;;;;5000003;28;20025;-78
2023/01/23 05:32:46;;;;;;;4.75;2.00;;;;;;;;;;5016518;28;20060;-77
2023/01/23 05:35:12;;;;;;;4.70;2.25;;;;;;;;;;5016805;28;20067;-78
2023/01/23 05:37:37;;;;;;;3.67;2.10;;;;;;;;;;5016371;28;20175;-77
2023/01/23 05:40:05;;;;;;;4.50;2.65;;;;;;;;;;5016331;28;20034;-78
2023/01/23 05:42:31;;;;;;;3.83;2.10;;;;;;;;;;5017273;28;20035;-77
2023/01/23 05:44:56;;;;;;;2.70;1.80;;;;;;;;;;5033964;28;20540;-77
2023/01/23 05:47:21;;;;;;;3.88;2.10;;;;;;;;;;5033863;28;20036;-77
2023/01/23 05:49:47;;;;;;;5.75;2.20;;;;;;;;;;5033998;28;20027;-78
2023/01/23 05:52:12;;;;;;;3.95;2.03;;;;;;;;;;5016470;28;20052;-78
2023/01/23 05:54:37;;;;;;;2.80;1.85;;;;;;;;;;5016010;28;20030;-79
2023/01/23 05:57:03;;;;;;;3.38;1.90;;;;;;;;;;4999810;28;20030;-79
2023/01/23 05:59:29;;;;;;;7.20;2.55;;;;;;;;;;4999630;28;20372;-79
2023/01/23 06:01:54;;;;;;;6.15;2.83;;;;;;;;;;5033925;28;20071;-79
2023/01/23 06:04:19;;;;;;;2.88;1.90;;;;;;;;;;5000013;28;20033;-79
2023/01/23 06:06:45;;;;;;;6.65;2.60;;;;;;;;;;5016048;28;20036;-79
2023/01/23 06:09:10;;;;;;;4.50;2.13;;;;;;;;;;5016517;28;20400;-80
2023/01/23 06:11:36;;;;;;;8.02;2.53;;;;;;;;;;5033731;28;20045;-79
2023/01/23 06:14:01;;;;;;;7.32;2.47;;;;;;;;;;5048405;28;20049;-79
2023/01/23 06:16:26;;;;;;;3.72;2.00;;;;;;;;;;5053325;28;20434;-79
2023/01/23 06:18:52;;;;;;;3.22;2.17;;;;;;;;;;5053608;28;20052;-79
2023/01/23 06:21:17;;;;;;;9.48;2.40;;;;;;;;;;5053226;28;20411;-79
2023/01/23 06:23:44;;;;;;;4.03;2.05;;;;;;;;;;5035519;28;20029;-79
2023/01/23 06:26:10;;;;;;;3.13;1.85;;;;;;;;;;5035507;28;20029;-78
2023/01/23 06:28:35;;;;;;;4.38;2.13;;;;;;;;;;5052962;28;20450;-78
2023/01/23 06:31:02;;;;;;;4.68;2.28;;;;;;;;;;5053451;28;20052;-78
2023/01/23 06:33:29;;;;;;;6.30;2.22;;;;;;;;;;5035433;28;20033;-78
2023/01/23 06:35:59;;;;;;;7.35;2.47;;;;;;;;;;5035447;28;20025;-79
2023/01/23 06:38:25;;;;;;;3.03;1.88;;;;;;;;;;5053718;28;20464;-79
2023/01/23 06:40:50;;;;;;;2.38;1.88;;;;;;;;;;5035458;28;20079;-79
2023/01/23 06:43:16;;;;;;;4.65;1.92;;;;;;;;;;5035513;28;20054;-79
2023/01/23 06:45:45;;;;;;;4.28;2.40;;;;;;;;;;5052947;28;20029;-80
2023/01/23 06:48:10;;;;;;;3.85;2.10;;;;;;;;;;5035213;28;20033;-79
2023/01/23 06:50:37;;;;;;;4.97;2.25;;;;;;;;;;5035380;28;20490;-79
2023/01/23 06:53:04;;;;;;;6.00;2.38;;;;;;;;;;5053291;28;20040;-79
2023/01/23 06:55:29;;;;;;;4.82;2.03;;;;;;;;;;5052994;28;20021;-79
2023/01/23 06:57:55;;;;;;;5.03;2.30;;;;;;;;;;5018610;28;20479;-79
2023/01/23 07:00:21;;;;;;;2.58;1.92;;;;;;;;;;5053164;28;20537;-79
2023/01/23 07:02:46;;;;;;;6.15;2.60;;;;;;;;;;5053147;28;20430;-79
2023/01/23 07:05:11;;;;;;;3.72;2.15;;;;;;;;;;5052839;28;20033;-79
2023/01/23 07:07:37;;;;;;;3.38;1.80;;;;;;;;;;5035129;28;20033;-79
2023/01/23 07:10:03;;;;;;;3.22;2.15;;;;;;;;;;5053141;28;20111;-80
2023/01/23 07:12:29;;;;;;;3.97;2.30;;;;;;;;;;5052879;28;20498;-79
2023/01/23 07:14:54;;;;;;;3.55;2.35;;;;;;;;;;5035313;28;20103;-80
2023/01/23 07:17:19;;;;;;;3.75;2.33;;;;;;;;;;5035270;28;20028;-79
2023/01/23 07:19:45;;;;;;;4.57;2.25;;;;;;;;;;5034811;28;20037;-79
2023/01/23 07:22:10;;;;;;;3.53;2.25;;;;;;;;;;5035074;28;20111;-79
2023/01/23 07:24:36;;;;;;;2.72;2.22;;;;;;;;;;5051866;28;20438;-80
2023/01/23 07:27:01;;;;;;;2.60;2.08;;;;;;;;;;5035190;28;20037;-79
2023/01/23 07:29:26;;;;;;;3.95;2.20;;;;;;;;;;5052507;28;20033;-79
2023/01/23 07:31:52;;;;;;;5.35;2.22;;;;;;;;;;5018244;28;20025;-79
2023/01/23 07:34:17;;;;;;;4.15;2.10;;;;;;;;;;5052724;28;20387;-80
2023/01/23 07:36:43;;;;;;;2.83;2.20;;;;;;;;;;5035457;28;20033;-81
2023/01/23 07:39:08;;;;;;;3.47;2.08;;;;;;;;;;5051691;28;20025;-80
2023/01/23 07:41:33;;;;;;;4.47;2.08;;;;;;;;;;5037105;28;20031;-80
2023/01/23 07:43:59;;;;;;;6.10;2.17;;;;;;;;;;5038405;28;20047;-79
2023/01/23 07:46:25;;;;;;;3.95;1.90;;;;;;;;;;5038497;28;20029;-79
2023/01/23 07:48:51;;;;;;;2.83;2.25;;;;;;;;;;5056463;28;20107;-79
2023/01/23 07:51:16;;;;;;;2.53;1.90;;;;;;;;;;5038221;28;20148;-79
2023/01/23 07:53:42;;;;;;;2.20;1.98;;;;;;;;;;5056288;28;20079;-78
2023/01/23 07:56:07;;;;;;;4.10;2.30;;;;;;;;;;5037984;28;20025;-79
2023/01/23 07:58:33;;;;;;;5.05;2.10;;;;;;;;;;5055915;28;20107;-79
2023/01/23 08:00:58;;;;;;;3.95;2.55;;;;;;;;;;5054894;28;20460;-79
2023/01/23 08:03:27;;;;;;;4.05;1.90;;;;;;;;;;5021482;28;20028;-79
2023/01/23 08:05:53;;;;;;;2.95;1.80;;;;;;;;;;5038499;28;20090;-79
2023/01/23 08:08:18;;;;;;;10.95;2.40;;;;;;;;;;5054140;28;20460;-79
2023/01/23 08:10:43;;;;;;;5.80;2.60;;;;;;;;;;5055388;28;20055;-78
2023/01/23 08:13:09;;;;;;;6.40;2.40;;;;;;;;;;5055167;28;20045;-79
2023/01/23 08:15:36;;;;;;;13.60;3.15;;;;;;;;;;5055157;28;20040;-79
2023/01/23 08:18:01;;;;;;;6.72;2.75;;;;;;;;;;5037607;28;20033;-78
2023/01/23 08:20:28;;;;;;;6.63;2.80;;;;;;;;;;5054941;28;20045;-79
2023/01/23 08:22:55;;;;;;;6.68;2.75;;;;;;;;;;5055442;28;20036;-79
2023/01/23 08:25:20;;;;;;;7.03;2.88;;;;;;;;;;5054983;28;20033;-78
2023/01/23 08:27:45;;;;;;;5.65;2.50;;;;;;;;;;5037640;28;20543;-79
2023/01/23 08:30:11;;;;;;;6.63;2.58;;;;;;;;;;5037844;28;20039;-79
2023/01/23 08:32:36;;;;;;;7.82;2.88;;;;;;;;;;5055115;28;20162;-79
2023/01/23 08:35:03;;;;;;;6.22;2.65;;;;;;;;;;5054831;28;20545;-80
2023/01/23 08:37:29;;;;;;;6.93;2.53;;;;;;;;;;5054843;28;20025;-80
2023/01/23 08:39:54;;;;;;;5.28;2.95;;;;;;;;;;5054983;28;20029;-80
2023/01/23 08:42:19;;;;;;;6.70;3.00;;;;;;;;;;5037176;28;20033;-80
2023/01/23 08:44:45;;;;;;;4.50;2.40;;;;;;;;;;5054913;28;20059;-80
2023/01/23 08:47:10;;;;;;;5.95;2.85;;;;;;;;;;5020793;28;20033;-80
2023/01/23 08:49:36;;;;;;;7.40;2.72;;;;;;;;;;5036724;28;20383;-80
2023/01/23 08:52:03;;;;;;;8.77;2.70;;;;;;;;;;5054673;28;20024;-80
2023/01/23 08:54:29;;;;;;;4.47;2.53;;;;;;;;;;5020418;28;20377;-80
2023/01/23 08:56:54;;;;;;;5.90;2.63;;;;;;;;;;5054583;28;20040;-80
2023/01/23 08:59:20;;;;;;;2.72;2.25;;;;;;;;;;5036827;28;20532;-80
2023/01/23 09:01:46;;;;;;;4.95;2.40;;;;;;;;;;5019983;28;20029;-80
2023/01/23 09:04:12;;;;;;;4.50;2.72;;;;;;;;;;5054563;28;20107;-80
2023/01/23 09:06:38;;;;;;;3.35;2.70;;;;;;;;;;5053872;28;20100;-79
2023/01/23 09:09:04;;;;;;;6.00;3.13;;;;;;;;;;5058766;28;20364;-80
2023/01/23 09:11:29;;;;;;;3.30;2.20;;;;;;;;;;5075693;28;20028;-79
2023/01/23 09:13:55;;;;;;;5.85;2.55;;;;;;;;;;5042987;28;20080;-79
2023/01/23 09:16:20;;;;;;;4.50;2.25;;;;;;;;;;5054484;28;20040;-78
2023/01/23 09:18:46;;;;;;;4.65;2.38;;;;;;;;;;5036406;28;20100;-79
2023/01/23 09:21:13;;;;;;;2.83;2.28;;;;;;;;;;5019328;28;20029;-79
2023/01/23 09:23:39;;;;;;;3.63;2.50;;;;;;;;;;5037044;28;20051;-79
2023/01/23 09:26:07;;;;;;;4.18;2.45;;;;;;;;;;5036825;28;20029;-80
2023/01/23 09:28:34;;;;;;;3.80;2.25;;;;;;;;;;5020158;28;20031;-79
2023/01/23 09:31:06;;;;;;;4.63;2.30;;;;;;;;;;5036198;28;20025;-79
2023/01/23 09:33:31;;;;;;;3.17;2.30;;;;;;;;;;5053833;28;20044;-80
2023/01/23 09:35:57;;;;;;;3.30;2.40;;;;;;;;;;5019512;28;20025;-79
2023/01/23 09:38:22;;;;;;;5.90;2.80;;;;;;;;;;5019512;28;20029;-79
2023/01/23 09:40:53;;;;;;;7.60;2.40;;;;;;;;;;5035426;28;20104;-80
2023/01/23 09:43:42;;;;;;;3.35;2.40;;;;;;;;;;5036532;28;20029;-79
2023/01/23 09:46:15;;;;;;;5.25;2.58;;;;;;;;;;5023832;28;20029;-79
2023/01/23 09:48:48;;;;;;;3.53;2.50;;;;;;;;;;5016520;28;20021;-79
2023/01/23 09:51:32;;;;;;;3.47;2.40;;;;;;;;;;5015841;28;20092;-79
2023/01/23 09:54:04;;;;;;;;;;;;;;;;;;5016335;28;20021;-77
2023/01/23 09:56:37;;;;;;;2.25;1.98;;;;;;;;;;5032376;28;20268;-78
2023/01/23 09:59:36;;;;;;;4.85;2.50;;;;;;;;;;4999763;28;20119;-80
2023/01/23 10:02:09;;;;;;;3.15;2.40;;;;;;;;;;5016082;28;20025;-78
2023/01/23 10:04:35;;;;;;;5.22;2.25;;;;;;;;;;5016023;28;20472;-82
2023/01/23 10:07:10;;;;;;;3.60;2.40;;;;;;;;;;5016191;28;20029;-79
2023/01/23 10:09:41;;;;;;;5.07;2.70;;;;;;;;;;5033611;28;20515;-81
2023/01/23 10:12:23;;;;;;;9.40;2.42;;;;;;;;;;5033796;28;20030;-81
2023/01/23 10:14:57;;;;;;;2.90;2.30;;;;;;;;;;5052848;28;20097;-80
2023/01/23 10:17:33;;;;;;;5.95;2.50;;;;;;;;;;5053586;28;20121;-79
2023/01/23 10:20:13;;;;;;;4.05;2.17;;;;;;;;;;5053731;28;20020;-79
2023/01/23 10:22:51;;;;;;;4.72;2.08;;;;;;;;;;5035686;28;20048;-79
2023/01/23 10:25:22;;;;;;;3.65;2.03;;;;;;;;;;5052054;28;20056;-79
2023/01/23 10:27:50;;;;;;;3.90;1.92;;;;;;;;;;5035530;28;20032;-79
2023/01/23 10:30:21;;;;;;;3.30;1.92;;;;;;;;;;5035558;28;20040;-81
2023/01/23 10:33:13;;;;;;;4.13;2.13;;;;;;;;;;5053312;28;20131;-81
2023/01/23 10:35:49;;;;;;;3.75;2.17;;;;;;;;;;5053189;28;20031;-80
2023/01/23 10:38:39;;;;;;;3.88;2.08;;;;;;;;;;5035632;28;20075;-80
2023/01/23 10:41:13;;;;;;;3.80;2.00;;;;;;;;;;5035094;28;20036;-80
2023/01/23 10:43:40;;;;;;;5.30;2.15;;;;;;;;;;5035959;28;20025;-79
2023/01/23 10:46:14;;;;;;;5.32;2.35;;;;;;;;;;5053467;28;20094;-80
2023/01/23 10:48:51;;;;;;;4.25;1.90;;;;;;;;;;5035624;28;20029;-80
2023/01/23 10:51:27;;;;;;;2.67;1.98;;;;;;;;;;5035240;28;20440;-79
2023/01/23 10:54:09;;;;;;;3.63;1.95;;;;;;;;;;5036078;28;20025;-79
2023/01/23 10:56:38;;;;;;;4.72;1.98;;;;;;;;;;5035129;28;20021;-79
2023/01/23 10:59:04;;;;;;;2.58;2.08;;;;;;;;;;5035209;28;20028;-78
2023/01/23 11:01:35;;;;;;;6.75;2.30;;;;;;;;;;5035231;28;20082;-78
2023/01/23 11:04:18;;;;;;;2.53;2.30;;;;;;;;;;5035221;28;20056;-78
2023/01/23 11:06:44;;;;;;;4.70;2.38;;;;;;;;;;5035680;28;20029;-78
2023/01/23 11:09:19;;;;;;;2.90;2.10;;;;;;;;;;5035269;28;20037;-78
2023/01/23 11:11:58;;;;;;;3.70;1.95;;;;;;;;;;5051973;28;20029;-79
2023/01/23 11:14:23;;;;;;;2.65;1.95;;;;;;;;;;5019023;28;20100;-79
2023/01/23 11:17:15;;;;;;;5.40;2.20;;;;;;;;;;5018165;28;20037;-79
2023/01/23 11:19:41;;;;;;;3.78;1.92;;;;;;;;;;5019034;28;20147;-79
2023/01/23 11:22:41;;;;;;;4.43;2.08;;;;;;;;;;5036849;28;20068;-80
2023/01/23 11:25:30;;;;;;;3.97;2.08;;;;;;;;;;5036495;28;20037;-79
2023/01/23 11:28:01;;;;;;;4.57;2.20;;;;;;;;;;5002424;28;20403;-80
2023/01/23 11:30:32;;;;;;;3.03;2.20;;;;;;;;;;5036538;28;20037;-80
2023/01/23 11:33:05;;;;;;;5.95;2.20;;;;;;;;;;5036565;28;20021;-79
2023/01/23 11:35:52;;;;;;;2.33;2.13;;;;;;;;;;5018713;28;20387;-80
2023/01/23 11:38:20;;;;;;;6.07;2.45;;;;;;;;;;5036488;28;20490;-80
2023/01/23 11:40:46;;;;;;;5.20;2.55;;;;;;;;;;5018738;28;20029;-81
2023/01/23 11:43:15;;;;;;;4.05;2.78;;;;;;;;;;5036674;28;20029;-78
2023/01/23 11:46:11;;;;;;;4.00;2.47;;;;;;;;;;5018542;28;20018;-81
2023/01/23 11:49:14;;;;;;;5.30;2.80;;;;;;;;;;5018500;28;20120;-79
2023/01/23 11:52:14;;;;;;;7.22;3.25;;;;;;;;;;5036351;28;20021;-77
2023/01/23 11:54:57;;;;;;;9.77;3.50;;;;;;;;;;5035987;28;20029;-78
2023/01/23 11:57:28;;;;;;;11.23;3.80;;;;;;;;;;5035812;28;20025;-79
2023/01/23 12:00:16;;;;;;;6.95;3.38;;;;;;;;;;5014503;28;20029;-79
2023/01/23 12:03:04;;;;;;;6.80;3.50;;;;;;;;;;5022539;28;20121;-78
2023/01/23 12:05:48;;;;;;;4.78;3.10;;;;;;;;;;5017636;28;20033;-79
2023/01/23 12:08:38;;;;;;;8.48;3.70;;;;;;;;;;5017737;28;20029;-79
2023/01/23 12:11:15;;;;;;;11.88;3.75;;;;;;;;;;5017587;28;20030;-79
2023/01/23 12:14:11;;;;;;;6.28;3.28;;;;;;;;;;5023565;28;20179;-79
2023/01/23 12:17:01;;;;;;;8.48;4.07;;;;;;;;;;5017833;28;20037;-79
2023/01/23 12:19:45;;;;;;;6.65;3.72;;;;;;;;;;5035342;28;20392;-79
2023/01/23 12:22:58;;;;;;;5.10;3.63;;;;;;;;;;5035332;28;20362;-80
2023/01/23 12:25:36;;;;;;;4.43;3.30;;;;;;;;;;4982528;28;20492;-79
2023/01/23 12:28:23;;;;;;;6.68;3.47;;;;;;;;;;5000493;28;20091;-80
2023/01/23 12:31:14;;;;;;;5.47;3.25;;;;;;;;;;5040817;28;20464;-80
2023/01/23 12:34:18;;;;;;;6.47;3.40;;;;;;;;;;5017744;28;20345;-79
2023/01/23 12:36:58;;;;;;;8.65;3.60;;;;;;;;;;5037830;28;20021;-80
2023/01/23 12:39:42;;;;;;;7.85;3.28;;;;;;;;;;5037641;28;20021;-79
2023/01/23 12:42:10;;;;;;;5.80;3.22;;;;;;;;;;5037324;28;20033;-80
2023/01/23 12:45:18;;;;;;;6.40;3.25;;;;;;;;;;5037545;28;20037;-79
2023/01/23 12:47:51;;;;;;;4.97;3.28;;;;;;;;;;4974310;28;20038;-79
2023/01/23 12:50:20;;;;;;;6.97;3.28;;;;;;;;;;4958675;28;20089;-80
2023/01/23 12:52:52;;;;;;;3.38;2.85;;;;;;;;;;4958090;28;20155;-80
2023/01/23 12:55:24;;;;;;;6.78;3.10;;;;;;;;;;4957987;28;20114;-80
2023/01/23 12:57:55;;;;;;;4.55;2.92;;;;;;;;;;4974192;28;20026;-80
2023/01/23 13:00:35;;;;;;;5.47;2.97;;;;;;;;;;4957673;28;20113;-79
2023/01/23 13:03:38;;;;;;;2.75;2.30;;;;;;;;;;4941674;28;20073;-80
2023/01/23 13:06:15;;;;;;;7.15;2.80;;;;;;;;;;4974264;28;20134;-78
2023/01/23 13:08:54;;;;;;;4.22;2.75;;;;;;;;;;4957644;28;20026;-78
2023/01/23 13:11:39;;;;;;;4.05;2.42;;;;;;;;;;4973553;28;20030;-78
2023/01/23 13:14:23;;;;;;;6.35;2.75;;;;;;;;;;4964381;28;20472;-78
2023/01/23 13:16:51;;;;;;;3.65;2.58;;;;;;;;;;4977201;28;20046;-78
2023/01/23 13:22:22;;;;;;;3.65;2.40;;;;;;;;;;5059024;28;20077;-78
2023/01/23 13:27:41;;;;;;;2.92;2.00;;;;;;;;;;5058998;28;20036;-78
2023/01/23 13:30:31;;;;;;;3.60;2.77;;;;;;;;;;5057037;28;20020;-78
2023/01/23 13:33:06;;;;;;;2.95;2.30;;;;;;;;;;5056081;28;20364;-78
2023/01/23 13:35:51;;;;;;;4.80;2.42;;;;;;;;;;5074034;28;20059;-78
2023/01/23 13:38:20;;;;;;;2.45;2.20;;;;;;;;;;5055838;28;20024;-78
2023/01/23 13:41:03;;;;;;;3.15;2.50;;;;;;;;;;5055970;28;20452;-78
2023/01/23 13:44:03;;;;;;;2.60;2.30;;;;;;;;;;5056087;28;20028;-78
2023/01/23 13:46:50;;;;;;;3.03;2.33;;;;;;;;;;5042714;28;20033;-78
2023/01/23 13:50:06;;;;;;;3.50;2.35;;;;;;;;;;5055867;28;20025;-78
2023/01/23 13:58:27;;;;;;;3.95;2.10;;;;;;;;;;5051833;28;20067;-78
2023/01/23 14:06:43;;;;;;;4.63;2.10;;;;;;;;;;5058531;28;20035;-78
2023/01/23 14:09:20;;;;;;;2.35;2.15;;;;;;;;;;5073534;28;20033;-78
2023/01/23 14:11:45;;;;;;;2.55;1.92;;;;;;;;;;5055633;28;20082;-78
2023/01/23 14:16:55;;;;;;;3.60;2.33;;;;;;;;;;5024718;28;20415;-78
2023/01/23 14:19:26;;;;;;;2.83;2.33;;;;;;;;;;5053331;28;20037;-78
2023/01/23 14:21:54;;;;;;;3.75;2.30;;;;;;;;;;5053429;28;20021;-78
2023/01/23 14:24:26;;;;;;;3.97;1.98;;;;;;;;;;5035823;28;20021;-78
2023/01/23 14:26:59;;;;;;;2.22;2.03;;;;;;;;;;5035810;28;20083;-78
2023/01/23 14:29:26;;;;;;;4.35;2.42;;;;;;;;;;5035733;28;20103;-78
2023/01/23 14:31:51;;;;;;;2.40;2.20;;;;;;;;;;5035667;28;20489;-78
2023/01/23 14:34:18;;;;;;;2.38;2.17;;;;;;;;;;5019141;28;20036;-78
2023/01/23 14:37:10;;;;;;;2.30;2.03;;;;;;;;;;5053347;28;20028;-78
2023/01/23 14:39:35;;;;;;;4.57;2.60;;;;;;;;;;5031401;28;20094;-78
2023/01/23 14:42:02;;;;;;;2.63;1.95;;;;;;;;;;5018896;28;20037;-78
2023/01/23 14:44:30;;;;;;;2.58;2.05;;;;;;;;;;5019258;28;20048;-78
2023/01/23 14:46:57;;;;;;;2.20;2.00;;;;;;;;;;5035286;28;20025;-78
2023/01/23 14:49:27;;;;;;;2.22;2.03;;;;;;;;;;5019527;28;20028;-78
2023/01/23 14:52:02;;;;;;;2.95;2.15;;;;;;;;;;5039438;28;20024;-78
2023/01/23 14:54:28;;;;;;;2.38;1.98;;;;;;;;;;5022887;28;20048;-78
2023/01/23 14:56:55;;;;;;;2.10;1.90;;;;;;;;;;5057055;28;20472;-78
2023/01/23 14:59:38;;;;;;;2.20;2.00;;;;;;;;;;5039219;28;20054;-79
2023/01/23 15:02:23;;;;;;;3.42;2.22;;;;;;;;;;5038978;28;20021;-79
2023/01/23 15:05:06;;;;;;;3.17;2.10;;;;;;;;;;5057137;28;20050;-79
2023/01/23 15:07:33;;;;;;;2.47;2.13;;;;;;;;;;5056808;28;20134;-79
2023/01/23 15:09:58;;;;;;;3.38;2.33;;;;;;;;;;5056867;28;20025;-78
2023/01/23 15:12:24;;;;;;;3.13;2.17;;;;;;;;;;5022457;28;20032;-79
2023/01/23 15:14:53;;;;;;;2.95;1.75;;;;;;;;;;5068030;28;20044;-79
2023/01/23 15:17:19;;;;;;;2.67;2.15;;;;;;;;;;5058875;28;20025;-79
2023/01/23 15:19:55;;;;;;;2.70;2.22;;;;;;;;;;5058880;28;20036;-79
2023/01/23 15:22:25;;;;;;;3.30;2.03;;;;;;;;;;5042277;28;20024;-79
2023/01/23 15:24:51;;;;;;;2.05;1.85;;;;;;;;;;5041856;28;20028;-79
2023/01/23 15:27:24;;;;;;;2.45;2.20;;;;;;;;;;5058478;28;20034;-79